sensor_id;sensor_type;location;lat;lon;timestamp;P1;durP1;ratioP1;P2;durP2;ratioP2
55368;SDS011;41247;49.736;8.752;2023-03-25T00:01:10;7.57;;;1.40;;
55368;SDS011;41247;49.736;8.752;2023-03-25T00:04:54;4.20;;;1.35;;
55368;SDS011;41247;49.736;8.752;2023-03-25T00:08:35;4.25;;;1.30;;
55368;SDS011;41247;49.736;8.752;2023-03-25T00:12:15;9.98;;;2.20;;
55368;SDS011;41247;49.736;8.752;2023-03-25T00:15:56;8.45;;;1.33;;
55368;SDS011;41247;49.736;8.752;2023-03-25T00:19:38;6.38;;;1.42;;
55368;SDS011;41247;49.736;8.752;2023-03-25T00:23:18;5.15;;;0.95;;
55368;SDS011;41247;49.736;8.752;2023-03-25T00:27:00;5.93;;;1.15;;
55368;SDS011;41247;49.736;8.752;2023-03-25T00:30:41;3.38;;;0.73;;
55368;SDS011;41247;49.736;8.752;2023-03-25T00:34:23;4.35;;;0.82;;
55368;SDS011;41247;49.736;8.752;2023-03-25T00:38:04;5.05;;;0.95;;
55368;SDS011;41247;49.736;8.752;2023-03-25T00:41:45;3.67;;;0.65;;
55368;SDS011;41247;49.736;8.752;2023-03-25T00:45:25;6.40;;;0.75;;
55368;SDS011;41247;49.736;8.752;2023-03-25T00:49:07;5.13;;;0.55;;
55368;SDS011;41247;49.736;8.752;2023-03-25T00:52:49;8.15;;;1.02;;
55368;SDS011;41247;49.736;8.752;2023-03-25T00:56:30;6.55;;;1.20;;
55368;SDS011;41247;49.736;8.752;2023-03-25T01:00:12;6.13;;;0.90;;
55368;SDS011;41247;49.736;8.752;2023-03-25T01:03:56;6.22;;;1.17;;
55368;SDS011;41247;49.736;8.752;2023-03-25T01:07:39;5.57;;;0.90;;
55368;SDS011;41247;49.736;8.752;2023-03-25T01:11:22;2.50;;;0.70;;
55368;SDS011;41247;49.736;8.752;2023-03-25T01:15:05;8.65;;;1.35;;
55368;SDS011;41247;49.736;8.752;2023-03-25T01:18:48;6.53;;;1.23;;
55368;SDS011;41247;49.736;8.752;2023-03-25T01:22:29;8.48;;;0.90;;
55368;SDS011;41247;49.736;8.752;2023-03-25T01:26:10;9.52;;;1.25;;
55368;SDS011;41247;49.736;8.752;2023-03-25T01:29:50;7.25;;;0.98;;
55368;SDS011;41247;49.736;8.752;2023-03-25T01:33:31;3.92;;;1.00;;
55368;SDS011;41247;49.736;8.752;2023-03-25T01:37:12;6.55;;;0.82;;
55368;SDS011;41247;49.736;8.752;2023-03-25T01:40:52;4.20;;;0.90;;
55368;SDS011;41247;49.736;8.752;2023-03-25T01:48:21;4.30;;;0.80;;
55368;SDS011;41247;49.736;8.752;2023-03-25T01:52:13;8.40;;;0.95;;
55368;SDS011;41247;49.736;8.752;2023-03-25T01:56:01;5.82;;;0.85;;
55368;SDS011;41247;49.736;8.752;2023-03-25T01:59:44;5.75;;;0.80;;
55368;SDS011;41247;49.736;8.752;2023-03-25T02:03:26;6.18;;;1.20;;
55368;SDS011;41247;49.736;8.752;2023-03-25T02:07:08;10.40;;;1.17;;
55368;SDS011;41247;49.736;8.752;2023-03-25T02:10:49;8.38;;;0.90;;
55368;SDS011;41247;49.736;8.752;2023-03-25T02:14:33;5.43;;;1.13;;
55368;SDS011;41247;49.736;8.752;2023-03-25T02:18:27;9.10;;;1.10;;
55368;SDS011;41247;49.736;8.752;2023-03-25T02:35:30;2.50;;;0.20;;
55368;SDS011;41247;49.736;8.752;2023-03-25T02:43:27;0.70;;;0.25;;
55368;SDS011;41247;49.736;8.752;2023-03-25T02:47:21;1.15;;;0.20;;
55368;SDS011;41247;49.736;8.752;2023-03-25T02:51:08;0.60;;;0.30;;
55368;SDS011;41247;49.736;8.752;2023-03-25T02:54:54;1.33;;;0.30;;
55368;SDS011;41247;49.736;8.752;2023-03-25T02:58:39;1.60;;;0.30;;
55368;SDS011;41247;49.736;8.752;2023-03-25T03:02:24;2.28;;;0.60;;
55368;SDS011;41247;49.736;8.752;2023-03-25T03:06:12;1.05;;;0.43;;
55368;SDS011;41247;49.736;8.752;2023-03-25T03:10:04;2.58;;;0.50;;
55368;SDS011;41247;49.736;8.752;2023-03-25T03:14:05;1.77;;;0.50;;
55368;SDS011;41247;49.736;8.752;2023-03-25T03:18:27;3.38;;;0.75;;
55368;SDS011;41247;49.736;8.752;2023-03-25T03:22:53;5.63;;;0.93;;
55368;SDS011;41247;49.736;8.752;2023-03-25T03:27:27;5.40;;;0.60;;
55368;SDS011;41247;49.736;8.752;2023-03-25T03:31:11;3.30;;;0.70;;
55368;SDS011;41247;49.736;8.752;2023-03-25T03:35:03;3.50;;;0.70;;
55368;SDS011;41247;49.736;8.752;2023-03-25T03:39:00;5.28;;;0.90;;
55368;SDS011;41247;49.736;8.752;2023-03-25T03:42:51;6.00;;;1.10;;
55368;SDS011;41247;49.736;8.752;2023-03-25T03:46:52;5.20;;;1.15;;
55368;SDS011;41247;49.736;8.752;2023-03-25T03:50:39;4.38;;;1.00;;
55368;SDS011;41247;49.736;8.752;2023-03-25T03:54:27;4.78;;;1.13;;
55368;SDS011;41247;49.736;8.752;2023-03-25T03:58:17;8.60;;;1.10;;
55368;SDS011;41247;49.736;8.752;2023-03-25T04:02:11;4.82;;;1.33;;
55368;SDS011;41247;49.736;8.752;2023-03-25T04:06:10;3.83;;;0.90;;
55368;SDS011;41247;49.736;8.752;2023-03-25T04:10:08;4.43;;;1.05;;
55368;SDS011;41247;49.736;8.752;2023-03-25T04:13:56;6.85;;;1.10;;
55368;SDS011;41247;49.736;8.752;2023-03-25T04:17:39;3.90;;;0.95;;
55368;SDS011;41247;49.736;8.752;2023-03-25T04:21:20;8.02;;;1.10;;
55368;SDS011;41247;49.736;8.752;2023-03-25T04:25:01;2.05;;;1.00;;
55368;SDS011;41247;49.736;8.752;2023-03-25T04:28:44;3.50;;;0.90;;
55368;SDS011;41247;49.736;8.752;2023-03-25T04:32:24;10.52;;;1.08;;
55368;SDS011;41247;49.736;8.752;2023-03-25T04:36:05;6.03;;;0.90;;
55368;SDS011;41247;49.736;8.752;2023-03-25T04:39:46;6.78;;;1.27;;
55368;SDS011;41247;49.736;8.752;2023-03-25T04:43:27;3.83;;;1.05;;
55368;SDS011;41247;49.736;8.752;2023-03-25T04:47:08;2.92;;;0.80;;
55368;SDS011;41247;49.736;8.752;2023-03-25T04:50:53;3.13;;;1.00;;
55368;SDS011;41247;49.736;8.752;2023-03-25T04:54:33;5.28;;;0.90;;
55368;SDS011;41247;49.736;8.752;2023-03-25T04:58:14;10.52;;;1.73;;
55368;SDS011;41247;49.736;8.752;2023-03-25T05:01:55;9.00;;;1.65;;
55368;SDS011;41247;49.736;8.752;2023-03-25T05:05:36;6.53;;;1.05;;
55368;SDS011;41247;49.736;8.752;2023-03-25T05:09:18;5.25;;;1.10;;
55368;SDS011;41247;49.736;8.752;2023-03-25T05:13:01;3.92;;;1.02;;
55368;SDS011;41247;49.736;8.752;2023-03-25T05:16:45;4.40;;;1.00;;
55368;SDS011;41247;49.736;8.752;2023-03-25T05:20:27;5.93;;;0.90;;
55368;SDS011;41247;49.736;8.752;2023-03-25T05:24:08;8.20;;;1.33;;
55368;SDS011;41247;49.736;8.752;2023-03-25T05:27:50;5.63;;;1.27;;
55368;SDS011;41247;49.736;8.752;2023-03-25T05:31:31;7.75;;;1.67;;
55368;SDS011;41247;49.736;8.752;2023-03-25T05:35:12;3.67;;;0.98;;
55368;SDS011;41247;49.736;8.752;2023-03-25T05:38:52;7.35;;;1.15;;
55368;SDS011;41247;49.736;8.752;2023-03-25T05:42:33;7.45;;;1.58;;
55368;SDS011;41247;49.736;8.752;2023-03-25T05:46:14;8.52;;;1.50;;
55368;SDS011;41247;49.736;8.752;2023-03-25T05:49:57;4.75;;;1.10;;
55368;SDS011;41247;49.736;8.752;2023-03-25T05:53:38;8.15;;;1.42;;
55368;SDS011;41247;49.736;8.752;2023-03-25T05:57:18;7.75;;;1.30;;
55368;SDS011;41247;49.736;8.752;2023-03-25T06:00:59;9.10;;;1.00;;
55368;SDS011;41247;49.736;8.752;2023-03-25T06:04:40;7.07;;;1.42;;
55368;SDS011;41247;49.736;8.752;2023-03-25T06:08:21;8.00;;;1.33;;
55368;SDS011;41247;49.736;8.752;2023-03-25T06:12:02;8.65;;;1.08;;
55368;SDS011;41247;49.736;8.752;2023-03-25T06:15:43;11.93;;;1.20;;
55368;SDS011;41247;49.736;8.752;2023-03-25T06:19:24;7.47;;;1.40;;
55368;SDS011;41247;49.736;8.752;2023-03-25T06:23:04;9.52;;;1.48;;
55368;SDS011;41247;49.736;8.752;2023-03-25T06:26:45;10.48;;;1.55;;
55368;SDS011;41247;49.736;8.752;2023-03-25T06:30:25;12.27;;;1.80;;
55368;SDS011;41247;49.736;8.752;2023-03-25T06:34:06;9.95;;;1.58;;
55368;SDS011;41247;49.736;8.752;2023-03-25T06:37:47;9.35;;;1.27;;
55368;SDS011;41247;49.736;8.752;2023-03-25T06:41:28;12.98;;;1.60;;
55368;SDS011;41247;49.736;8.752;2023-03-25T06:45:09;11.25;;;1.40;;
55368;SDS011;41247;49.736;8.752;2023-03-25T06:48:50;12.70;;;1.70;;
55368;SDS011;41247;49.736;8.752;2023-03-25T06:52:31;11.43;;;1.80;;
55368;SDS011;41247;49.736;8.752;2023-03-25T06:56:11;14.98;;;2.03;;
55368;SDS011;41247;49.736;8.752;2023-03-25T06:59:52;15.55;;;1.95;;
55368;SDS011;41247;49.736;8.752;2023-03-25T07:03:33;11.60;;;1.63;;
55368;SDS011;41247;49.736;8.752;2023-03-25T07:07:16;14.25;;;2.20;;
55368;SDS011;41247;49.736;8.752;2023-03-25T07:11:04;13.68;;;1.98;;
55368;SDS011;41247;49.736;8.752;2023-03-25T07:14:53;15.05;;;2.05;;
55368;SDS011;41247;49.736;8.752;2023-03-25T07:18:35;20.67;;;2.30;;
55368;SDS011;41247;49.736;8.752;2023-03-25T07:22:15;20.27;;;2.35;;
55368;SDS011;41247;49.736;8.752;2023-03-25T07:25:56;17.52;;;2.15;;
55368;SDS011;41247;49.736;8.752;2023-03-25T07:29:37;15.90;;;2.40;;
55368;SDS011;41247;49.736;8.752;2023-03-25T07:33:18;16.80;;;1.98;;
55368;SDS011;41247;49.736;8.752;2023-03-25T07:36:58;11.38;;;1.55;;
55368;SDS011;41247;49.736;8.752;2023-03-25T07:40:39;16.88;;;2.20;;
55368;SDS011;41247;49.736;8.752;2023-03-25T07:44:20;9.98;;;1.50;;
55368;SDS011;41247;49.736;8.752;2023-03-25T07:48:00;27.10;;;2.53;;
55368;SDS011;41247;49.736;8.752;2023-03-25T07:51:41;14.60;;;1.65;;
55368;SDS011;41247;49.736;8.752;2023-03-25T07:55:23;12.88;;;1.98;;
55368;SDS011;41247;49.736;8.752;2023-03-25T07:59:03;16.80;;;2.05;;
55368;SDS011;41247;49.736;8.752;2023-03-25T08:02:44;21.77;;;2.03;;
55368;SDS011;41247;49.736;8.752;2023-03-25T08:06:25;19.33;;;2.13;;
55368;SDS011;41247;49.736;8.752;2023-03-25T08:10:05;18.42;;;2.00;;
55368;SDS011;41247;49.736;8.752;2023-03-25T08:13:46;19.05;;;1.83;;
55368;SDS011;41247;49.736;8.752;2023-03-25T08:17:27;13.52;;;1.83;;
55368;SDS011;41247;49.736;8.752;2023-03-25T08:21:08;12.70;;;1.55;;
55368;SDS011;41247;49.736;8.752;2023-03-25T08:24:48;15.90;;;1.98;;
55368;SDS011;41247;49.736;8.752;2023-03-25T08:28:29;13.82;;;2.08;;
55368;SDS011;41247;49.736;8.752;2023-03-25T08:32:10;13.88;;;2.10;;
55368;SDS011;41247;49.736;8.752;2023-03-25T08:35:50;18.50;;;2.10;;
55368;SDS011;41247;49.736;8.752;2023-03-25T08:39:31;12.50;;;2.08;;
55368;SDS011;41247;49.736;8.752;2023-03-25T08:43:12;9.38;;;1.60;;
55368;SDS011;41247;49.736;8.752;2023-03-25T08:46:53;14.32;;;1.52;;
55368;SDS011;41247;49.736;8.752;2023-03-25T08:50:33;20.95;;;1.98;;
55368;SDS011;41247;49.736;8.752;2023-03-25T08:54:14;11.65;;;2.38;;
55368;SDS011;41247;49.736;8.752;2023-03-25T08:57:54;13.80;;;2.00;;
55368;SDS011;41247;49.736;8.752;2023-03-25T09:01:35;11.45;;;1.58;;
55368;SDS011;41247;49.736;8.752;2023-03-25T09:05:16;17.00;;;2.03;;
55368;SDS011;41247;49.736;8.752;2023-03-25T09:08:56;12.35;;;2.33;;
55368;SDS011;41247;49.736;8.752;2023-03-25T09:12:37;9.55;;;1.48;;
55368;SDS011;41247;49.736;8.752;2023-03-25T09:16:18;9.80;;;1.50;;
55368;SDS011;41247;49.736;8.752;2023-03-25T09:19:58;10.07;;;1.42;;
55368;SDS011;41247;49.736;8.752;2023-03-25T09:23:39;9.60;;;1.30;;
55368;SDS011;41247;49.736;8.752;2023-03-25T09:27:19;11.43;;;2.28;;
55368;SDS011;41247;49.736;8.752;2023-03-25T09:31:00;11.38;;;1.40;;
55368;SDS011;41247;49.736;8.752;2023-03-25T09:34:41;9.27;;;1.98;;
55368;SDS011;41247;49.736;8.752;2023-03-25T09:38:21;9.52;;;1.67;;
55368;SDS011;41247;49.736;8.752;2023-03-25T09:46:04;14.07;;;1.70;;
55368;SDS011;41247;49.736;8.752;2023-03-25T09:49:45;11.68;;;1.67;;
55368;SDS011;41247;49.736;8.752;2023-03-25T09:57:16;9.00;;;1.52;;
55368;SDS011;41247;49.736;8.752;2023-03-25T10:13:39;9.45;;;1.45;;
55368;SDS011;41247;49.736;8.752;2023-03-25T10:22:15;7.72;;;1.25;;
55368;SDS011;41247;49.736;8.752;2023-03-25T10:26:05;8.27;;;1.27;;
55368;SDS011;41247;49.736;8.752;2023-03-25T10:30:03;10.57;;;1.30;;
55368;SDS011;41247;49.736;8.752;2023-03-25T10:33:56;8.30;;;1.60;;
55368;SDS011;41247;49.736;8.752;2023-03-25T10:37:43;8.15;;;1.83;;
55368;SDS011;41247;49.736;8.752;2023-03-25T10:41:34;6.50;;;1.30;;
55368;SDS011;41247;49.736;8.752;2023-03-25T10:45:16;7.50;;;1.60;;
55368;SDS011;41247;49.736;8.752;2023-03-25T10:48:57;9.85;;;1.85;;
55368;SDS011;41247;49.736;8.752;2023-03-25T10:52:37;10.13;;;1.60;;
55368;SDS011;41247;49.736;8.752;2023-03-25T10:56:19;6.28;;;1.15;;
55368;SDS011;41247;49.736;8.752;2023-03-25T11:00:07;8.50;;;1.55;;
55368;SDS011;41247;49.736;8.752;2023-03-25T11:03:57;6.20;;;1.17;;
55368;SDS011;41247;49.736;8.752;2023-03-25T11:07:40;5.35;;;0.90;;
55368;SDS011;41247;49.736;8.752;2023-03-25T11:11:31;9.05;;;1.73;;
55368;SDS011;41247;49.736;8.752;2023-03-25T11:15:23;4.97;;;0.90;;
55368;SDS011;41247;49.736;8.752;2023-03-25T11:19:13;7.25;;;0.80;;
55368;SDS011;41247;49.736;8.752;2023-03-25T11:23:13;3.58;;;0.45;;
55368;SDS011;41247;49.736;8.752;2023-03-25T11:27:16;5.43;;;0.52;;
55368;SDS011;41247;49.736;8.752;2023-03-25T11:31:08;3.20;;;0.60;;
55368;SDS011;41247;49.736;8.752;2023-03-25T11:34:52;4.82;;;0.82;;
55368;SDS011;41247;49.736;8.752;2023-03-25T11:38:34;4.38;;;0.68;;
55368;SDS011;41247;49.736;8.752;2023-03-25T11:46:14;3.33;;;0.65;;
55368;SDS011;41247;49.736;8.752;2023-03-25T11:49:57;3.00;;;0.90;;
55368;SDS011;41247;49.736;8.752;2023-03-25T11:53:42;6.40;;;1.00;;
55368;SDS011;41247;49.736;8.752;2023-03-25T11:57:26;1.80;;;0.70;;
55368;SDS011;41247;49.736;8.752;2023-03-25T12:01:19;4.00;;;0.70;;
55368;SDS011;41247;49.736;8.752;2023-03-25T12:08:52;5.18;;;0.52;;
55368;SDS011;41247;49.736;8.752;2023-03-25T12:12:39;2.53;;;0.50;;
55368;SDS011;41247;49.736;8.752;2023-03-25T12:16:39;4.13;;;0.70;;
55368;SDS011;41247;49.736;8.752;2023-03-25T12:20:29;5.53;;;0.80;;
55368;SDS011;41247;49.736;8.752;2023-03-25T12:24:47;7.82;;;0.85;;
55368;SDS011;41247;49.736;8.752;2023-03-25T12:36:58;3.13;;;0.60;;
55368;SDS011;41247;49.736;8.752;2023-03-25T12:41:12;6.03;;;0.80;;
55368;SDS011;41247;49.736;8.752;2023-03-25T12:49:21;5.55;;;0.80;;
55368;SDS011;41247;49.736;8.752;2023-03-25T12:57:26;9.43;;;0.98;;
55368;SDS011;41247;49.736;8.752;2023-03-25T13:09:48;5.35;;;0.80;;
55368;SDS011;41247;49.736;8.752;2023-03-25T13:13:44;3.00;;;0.60;;
55368;SDS011;41247;49.736;8.752;2023-03-25T13:17:28;4.13;;;0.50;;
55368;SDS011;41247;49.736;8.752;2023-03-25T13:21:25;4.30;;;0.80;;
55368;SDS011;41247;49.736;8.752;2023-03-25T13:25:19;6.57;;;0.80;;
55368;SDS011;41247;49.736;8.752;2023-03-25T13:33:12;6.55;;;1.25;;
55368;SDS011;41247;49.736;8.752;2023-03-25T13:40:52;5.63;;;1.20;;
55368;SDS011;41247;49.736;8.752;2023-03-25T13:44:54;3.60;;;0.90;;
55368;SDS011;41247;49.736;8.752;2023-03-25T13:52:28;5.82;;;1.08;;
55368;SDS011;41247;49.736;8.752;2023-03-25T13:56:29;3.80;;;0.80;;
55368;SDS011;41247;49.736;8.752;2023-03-25T14:09:16;4.28;;;0.75;;
55368;SDS011;41247;49.736;8.752;2023-03-25T14:13:17;5.10;;;0.80;;
55368;SDS011;41247;49.736;8.752;2023-03-25T14:17:04;4.45;;;0.95;;
55368;SDS011;41247;49.736;8.752;2023-03-25T14:20:46;6.40;;;0.68;;
55368;SDS011;41247;49.736;8.752;2023-03-25T14:24:30;5.25;;;1.13;;
55368;SDS011;41247;49.736;8.752;2023-03-25T14:28:30;3.53;;;1.05;;
55368;SDS011;41247;49.736;8.752;2023-03-25T14:35:55;4.35;;;0.88;;
55368;SDS011;41247;49.736;8.752;2023-03-25T14:39:36;5.00;;;0.90;;
55368;SDS011;41247;49.736;8.752;2023-03-25T14:43:19;5.63;;;0.90;;
55368;SDS011;41247;49.736;8.752;2023-03-25T14:47:26;4.18;;;0.90;;
55368;SDS011;41247;49.736;8.752;2023-03-25T14:55:14;6.00;;;1.00;;
55368;SDS011;41247;49.736;8.752;2023-03-25T14:59:28;6.18;;;0.90;;
55368;SDS011;41247;49.736;8.752;2023-03-25T15:03:18;5.70;;;1.05;;
55368;SDS011;41247;49.736;8.752;2023-03-25T15:07:00;5.82;;;1.35;;
55368;SDS011;41247;49.736;8.752;2023-03-25T15:10:50;6.82;;;1.10;;
55368;SDS011;41247;49.736;8.752;2023-03-25T15:22:19;5.55;;;0.80;;
55368;SDS011;41247;49.736;8.752;2023-03-25T15:26:01;14.15;;;1.00;;
55368;SDS011;41247;49.736;8.752;2023-03-25T15:38:36;5.57;;;0.90;;
55368;SDS011;41247;49.736;8.752;2023-03-25T15:47:38;5.50;;;1.15;;
55368;SDS011;41247;49.736;8.752;2023-03-25T15:51:56;12.57;;;1.40;;
55368;SDS011;41247;49.736;8.752;2023-03-25T16:00:21;8.35;;;1.33;;
55368;SDS011;41247;49.736;8.752;2023-03-25T16:04:11;4.93;;;1.40;;
55368;SDS011;41247;49.736;8.752;2023-03-25T16:08:07;7.07;;;1.15;;
55368;SDS011;41247;49.736;8.752;2023-03-25T16:15:39;4.70;;;1.05;;
55368;SDS011;41247;49.736;8.752;2023-03-25T16:19:21;3.35;;;0.90;;
55368;SDS011;41247;49.736;8.752;2023-03-25T16:23:06;5.82;;;1.00;;
55368;SDS011;41247;49.736;8.752;2023-03-25T16:26:57;7.15;;;1.40;;
55368;SDS011;41247;49.736;8.752;2023-03-25T16:30:39;9.18;;;1.30;;
55368;SDS011;41247;49.736;8.752;2023-03-25T16:34:22;5.72;;;0.93;;
55368;SDS011;41247;49.736;8.752;2023-03-25T16:38:04;6.78;;;1.23;;
55368;SDS011;41247;49.736;8.752;2023-03-25T16:41:45;6.30;;;1.45;;
55368;SDS011;41247;49.736;8.752;2023-03-25T16:45:28;5.95;;;1.00;;
55368;SDS011;41247;49.736;8.752;2023-03-25T16:49:29;4.15;;;0.85;;
55368;SDS011;41247;49.736;8.752;2023-03-25T16:53:13;7.72;;;1.20;;
55368;SDS011;41247;49.736;8.752;2023-03-25T16:56:56;10.77;;;1.73;;
55368;SDS011;41247;49.736;8.752;2023-03-25T17:00:38;4.55;;;0.93;;
55368;SDS011;41247;49.736;8.752;2023-03-25T17:04:21;9.85;;;1.30;;
55368;SDS011;41247;49.736;8.752;2023-03-25T17:08:11;7.22;;;1.10;;
55368;SDS011;41247;49.736;8.752;2023-03-25T17:12:01;6.70;;;0.98;;
55368;SDS011;41247;49.736;8.752;2023-03-25T17:15:46;3.72;;;0.90;;
55368;SDS011;41247;49.736;8.752;2023-03-25T17:19:29;6.10;;;1.00;;
55368;SDS011;41247;49.736;8.752;2023-03-25T17:23:17;5.55;;;0.75;;
55368;SDS011;41247;49.736;8.752;2023-03-25T17:27:16;7.47;;;1.23;;
55368;SDS011;41247;49.736;8.752;2023-03-25T17:31:17;5.72;;;1.50;;
55368;SDS011;41247;49.736;8.752;2023-03-25T17:35:32;5.88;;;0.95;;
55368;SDS011;41247;49.736;8.752;2023-03-25T17:39:20;4.80;;;1.20;;
55368;SDS011;41247;49.736;8.752;2023-03-25T17:43:03;2.67;;;0.77;;
55368;SDS011;41247;49.736;8.752;2023-03-25T17:46:44;3.58;;;0.85;;
55368;SDS011;41247;49.736;8.752;2023-03-25T17:50:25;4.13;;;0.70;;
55368;SDS011;41247;49.736;8.752;2023-03-25T17:54:05;7.10;;;1.13;;
55368;SDS011;41247;49.736;8.752;2023-03-25T17:57:46;5.93;;;0.77;;
55368;SDS011;41247;49.736;8.752;2023-03-25T18:01:27;6.78;;;1.00;;
55368;SDS011;41247;49.736;8.752;2023-03-25T18:05:09;6.63;;;1.33;;
55368;SDS011;41247;49.736;8.752;2023-03-25T18:08:50;3.38;;;0.80;;
55368;SDS011;41247;49.736;8.752;2023-03-25T18:12:30;1.15;;;0.65;;
55368;SDS011;41247;49.736;8.752;2023-03-25T18:16:11;1.00;;;0.35;;
55368;SDS011;41247;49.736;8.752;2023-03-25T18:19:52;1.35;;;0.80;;
55368;SDS011;41247;49.736;8.752;2023-03-25T18:23:33;3.05;;;0.70;;
55368;SDS011;41247;49.736;8.752;2023-03-25T18:27:14;2.00;;;0.57;;
55368;SDS011;41247;49.736;8.752;2023-03-25T18:30:55;1.95;;;0.60;;
55368;SDS011;41247;49.736;8.752;2023-03-25T18:34:37;2.50;;;0.50;;
55368;SDS011;41247;49.736;8.752;2023-03-25T18:38:22;3.58;;;1.35;;
55368;SDS011;41247;49.736;8.752;2023-03-25T18:42:05;2.40;;;1.63;;
55368;SDS011;41247;49.736;8.752;2023-03-25T18:45:46;2.08;;;0.80;;
55368;SDS011;41247;49.736;8.752;2023-03-25T18:49:27;1.17;;;0.60;;
55368;SDS011;41247;49.736;8.752;2023-03-25T18:53:08;2.30;;;0.57;;
55368;SDS011;41247;49.736;8.752;2023-03-25T18:56:48;1.35;;;0.40;;
55368;SDS011;41247;49.736;8.752;2023-03-25T19:00:33;2.15;;;0.30;;
55368;SDS011;41247;49.736;8.752;2023-03-25T19:04:16;5.43;;;1.75;;
55368;SDS011;41247;49.736;8.752;2023-03-25T19:07:57;4.13;;;1.20;;
55368;SDS011;41247;49.736;8.752;2023-03-25T19:11:37;5.47;;;1.52;;
55368;SDS011;41247;49.736;8.752;2023-03-25T19:15:19;2.22;;;0.40;;
55368;SDS011;41247;49.736;8.752;2023-03-25T19:19:03;2.90;;;1.40;;
55368;SDS011;41247;49.736;8.752;2023-03-25T19:22:43;2.20;;;0.68;;
55368;SDS011;41247;49.736;8.752;2023-03-25T19:26:24;2.75;;;0.80;;
55368;SDS011;41247;49.736;8.752;2023-03-25T19:30:05;4.53;;;1.55;;
55368;SDS011;41247;49.736;8.752;2023-03-25T19:33:48;3.95;;;0.75;;
55368;SDS011;41247;49.736;8.752;2023-03-25T19:37:30;1.73;;;0.80;;
55368;SDS011;41247;49.736;8.752;2023-03-25T19:41:11;4.55;;;1.15;;
55368;SDS011;41247;49.736;8.752;2023-03-25T19:44:53;5.88;;;2.28;;
55368;SDS011;41247;49.736;8.752;2023-03-25T19:48:34;13.88;;;4.40;;
55368;SDS011;41247;49.736;8.752;2023-03-25T19:52:14;9.23;;;2.10;;
55368;SDS011;41247;49.736;8.752;2023-03-25T19:55:59;6.32;;;1.13;;
55368;SDS011;41247;49.736;8.752;2023-03-25T19:59:42;5.95;;;1.00;;
55368;SDS011;41247;49.736;8.752;2023-03-25T20:03:22;7.05;;;1.17;;
55368;SDS011;41247;49.736;8.752;2023-03-25T20:07:03;8.18;;;1.20;;
55368;SDS011;41247;49.736;8.752;2023-03-25T20:10:44;9.13;;;1.40;;
55368;SDS011;41247;49.736;8.752;2023-03-25T20:14:24;7.68;;;1.60;;
55368;SDS011;41247;49.736;8.752;2023-03-25T20:18:05;6.05;;;1.95;;
55368;SDS011;41247;49.736;8.752;2023-03-25T20:21:45;4.93;;;1.45;;
55368;SDS011;41247;49.736;8.752;2023-03-25T20:25:26;5.80;;;1.35;;
55368;SDS011;41247;49.736;8.752;2023-03-25T20:29:07;7.13;;;1.35;;
55368;SDS011;41247;49.736;8.752;2023-03-25T20:32:47;4.55;;;1.42;;
55368;SDS011;41247;49.736;8.752;2023-03-25T20:36:28;4.47;;;0.98;;
55368;SDS011;41247;49.736;8.752;2023-03-25T20:40:12;5.88;;;1.20;;
55368;SDS011;41247;49.736;8.752;2023-03-25T20:43:55;7.82;;;1.52;;
55368;SDS011;41247;49.736;8.752;2023-03-25T20:47:35;7.90;;;1.45;;
55368;SDS011;41247;49.736;8.752;2023-03-25T20:51:16;2.70;;;0.90;;
55368;SDS011;41247;49.736;8.752;2023-03-25T20:54:57;5.32;;;1.00;;
55368;SDS011;41247;49.736;8.752;2023-03-25T20:58:37;6.45;;;1.00;;
55368;SDS011;41247;49.736;8.752;2023-03-25T21:02:19;4.10;;;0.88;;
55368;SDS011;41247;49.736;8.752;2023-03-25T21:06:00;5.80;;;1.40;;
55368;SDS011;41247;49.736;8.752;2023-03-25T21:09:40;4.63;;;1.10;;
55368;SDS011;41247;49.736;8.752;2023-03-25T21:13:21;9.35;;;1.08;;
55368;SDS011;41247;49.736;8.752;2023-03-25T21:17:02;4.75;;;1.13;;
55368;SDS011;41247;49.736;8.752;2023-03-25T21:20:47;3.83;;;0.80;;
55368;SDS011;41247;49.736;8.752;2023-03-25T21:24:31;5.20;;;0.90;;
55368;SDS011;41247;49.736;8.752;2023-03-25T21:28:12;5.88;;;1.20;;
55368;SDS011;41247;49.736;8.752;2023-03-25T21:31:53;2.75;;;0.77;;
55368;SDS011;41247;49.736;8.752;2023-03-25T21:35:34;8.13;;;1.10;;
55368;SDS011;41247;49.736;8.752;2023-03-25T21:39:15;5.50;;;1.00;;
55368;SDS011;41247;49.736;8.752;2023-03-25T21:42:56;7.68;;;1.08;;
55368;SDS011;41247;49.736;8.752;2023-03-25T21:46:37;7.55;;;1.20;;
55368;SDS011;41247;49.736;8.752;2023-03-25T21:50:17;8.07;;;1.15;;
55368;SDS011;41247;49.736;8.752;2023-03-25T21:53:58;3.70;;;0.82;;
55368;SDS011;41247;49.736;8.752;2023-03-25T21:57:39;5.15;;;1.10;;
55368;SDS011;41247;49.736;8.752;2023-03-25T22:01:21;5.28;;;0.90;;
55368;SDS011;41247;49.736;8.752;2023-03-25T22:05:05;5.90;;;1.25;;
55368;SDS011;41247;49.736;8.752;2023-03-25T22:08:46;7.88;;;1.42;;
55368;SDS011;41247;49.736;8.752;2023-03-25T22:12:27;12.52;;;1.50;;
55368;SDS011;41247;49.736;8.752;2023-03-25T22:16:08;5.43;;;1.10;;
55368;SDS011;41247;49.736;8.752;2023-03-25T22:19:50;7.38;;;1.35;;
55368;SDS011;41247;49.736;8.752;2023-03-25T22:23:31;8.55;;;1.40;;
55368;SDS011;41247;49.736;8.752;2023-03-25T22:27:12;8.85;;;1.48;;
55368;SDS011;41247;49.736;8.752;2023-03-25T22:30:53;7.45;;;1.45;;
55368;SDS011;41247;49.736;8.752;2023-03-25T22:34:34;10.32;;;1.60;;
55368;SDS011;41247;49.736;8.752;2023-03-25T22:38:15;8.20;;;1.40;;
55368;SDS011;41247;49.736;8.752;2023-03-25T22:41:56;7.28;;;1.10;;
55368;SDS011;41247;49.736;8.752;2023-03-25T22:45:37;8.57;;;1.45;;
55368;SDS011;41247;49.736;8.752;2023-03-25T22:49:18;4.70;;;1.20;;
55368;SDS011;41247;49.736;8.752;2023-03-25T22:52:58;11.07;;;1.55;;
55368;SDS011;41247;49.736;8.752;2023-03-25T22:56:39;10.57;;;1.80;;
55368;SDS011;41247;49.736;8.752;2023-03-25T23:00:19;7.88;;;1.38;;
55368;SDS011;41247;49.736;8.752;2023-03-25T23:04:05;11.60;;;1.73;;
55368;SDS011;41247;49.736;8.752;2023-03-25T23:07:46;9.48;;;1.52;;
55368;SDS011;41247;49.736;8.752;2023-03-25T23:11:27;5.75;;;1.27;;
55368;SDS011;41247;49.736;8.752;2023-03-25T23:15:09;5.07;;;1.20;;
55368;SDS011;41247;49.736;8.752;2023-03-25T23:18:50;10.82;;;1.55;;
55368;SDS011;41247;49.736;8.752;2023-03-25T23:22:31;11.48;;;1.60;;
55368;SDS011;41247;49.736;8.752;2023-03-25T23:26:16;8.73;;;1.05;;
55368;SDS011;41247;49.736;8.752;2023-03-25T23:30:02;3.92;;;1.25;;
55368;SDS011;41247;49.736;8.752;2023-03-25T23:33:45;12.57;;;2.05;;
55368;SDS011;41247;49.736;8.752;2023-03-25T23:37:27;7.25;;;1.35;;
55368;SDS011;41247;49.736;8.752;2023-03-25T23:41:08;13.07;;;1.83;;
55368;SDS011;41247;49.736;8.752;2023-03-25T23:44:51;7.30;;;1.30;;
55368;SDS011;41247;49.736;8.752;2023-03-25T23:48:32;7.07;;;1.25;;
55368;SDS011;41247;49.736;8.752;2023-03-25T23:52:13;8.93;;;2.60;;
55368;SDS011;41247;49.736;8.752;2023-03-25T23:55:54;11.65;;;2.22;;
55368;SDS011;41247;49.736;8.752;2023-03-25T23:59:34;11.05;;;1.48;;
